Time;durP1;ratioP1;P1;durP2;ratioP2;P2;SDS_P1;SDS_P2;PMS_P1;PMS_P2;Temp;Humidity;BMP_temperature;BMP_pressure;BME280_temperature;BME280_humidity;BME280_pressure;Samples;Min_cycle;Max_cycle;Signal;HPM_P1;HPM_P2
2023/01/04 00:02:24;;;;;;;;;;;;;;;;;;4995370;28;19917;-77
2023/01/04 00:05:11;;;;;;;;;;;;;;;;;;5009826;28;19925;-81
2023/01/04 00:07:57;;;;;;;;;;;;;;;;;;5004879;28;19917;-77
2023/01/04 00:10:44;;;;;;;;;;;;;;;;;;5023494;28;19914;-77
2023/01/04 00:13:30;;;;;;;;;;;;;;;;;;5009128;28;19909;-77
2023/01/04 00:16:17;;;;;;;;;;;;;;;;;;5006840;28;19921;-76
2023/01/04 00:19:03;;;;;;;;;;;;;;;;;;5010800;28;19917;-77
2023/01/04 00:21:50;;;;;;;;;;;;;;;;;;5007758;28;19913;-77
2023/01/04 00:24:36;;;;;;;;;;;;;;;;;;4992665;28;19944;-77
2023/01/04 00:27:23;;;;;;;;;;;;;;;;;;5014626;28;19913;-77
2023/01/04 00:30:09;;;;;;;;;;;;;;;;;;4998961;28;20287;-77
2023/01/04 00:32:56;;;;;;;;;;;;;;;;;;5020096;28;19909;-76
2023/01/04 00:35:42;;;;;;;;;;;;;;;;;;5001578;28;20270;-77
2023/01/04 00:38:29;;;;;;;;;;;;;;;;;;5018319;28;19924;-77
2023/01/04 00:41:15;;;;;;;;;;;;;;;;;;5007574;28;20395;-77
2023/01/04 00:44:03;;;;;;;;;;;;;;;;;;5000271;28;19913;-77
2023/01/04 00:46:49;;;;;;;;;;;;;;;;;;5007771;28;19914;-78
2023/01/04 00:49:36;;;;;;;;;;;;;;;;;;5004292;28;19914;-78
2023/01/04 00:52:22;;;;;;;;;;;;;;;;;;5003512;28;19948;-77
2023/01/04 00:55:09;;;;;;;;;;;;;;;;;;5009067;28;19937;-76
2023/01/04 00:57:55;;;;;;;;;;;;;;;;;;4989166;28;20970;-77
2023/01/04 01:00:42;;;;;;;;;;;;;;;;;;5002237;28;19914;-77
2023/01/04 01:03:28;;;;;;;;;;;;;;;;;;5003817;28;19909;-77
2023/01/04 01:06:15;;;;;;;;;;;;;;;;;;5002292;28;20373;-77
2023/01/04 01:09:01;;;;;;;;;;;;;;;;;;5008308;28;19931;-78
2023/01/04 01:11:47;;;;;;;;;;;;;;;;;;5004171;28;19913;-77
2023/01/04 01:14:34;;;;;;;;;;;;;;;;;;5006237;28;19948;-77
2023/01/04 01:17:20;;;;;;;;;;;;;;;;;;5007012;28;19920;-77
2023/01/04 01:20:07;;;;;;;;;;;;;;;;;;5003427;28;20357;-78
2023/01/04 01:22:53;;;;;;;;;;;;;;;;;;5001830;28;19910;-78
2023/01/04 01:25:40;;;;;;;;;;;;;;;;;;5004892;28;20613;-77
2023/01/04 01:28:26;;;;;;;;;;;;;;;;;;5004681;28;19913;-78
2023/01/04 01:31:13;;;;;;;;;;;;;;;;;;5005700;28;19920;-80
2023/01/04 01:33:59;;;;;;;;;;;;;;;;;;5006915;28;20276;-81
2023/01/04 01:36:46;;;;;;;;;;;;;;;;;;5001622;28;19917;-80
2023/01/04 01:39:32;;;;;;;;;;;;;;;;;;5005410;28;19925;-82
2023/01/04 01:42:19;;;;;;;;;;;;;;;;;;4999518;28;20373;-78
2023/01/04 01:45:09;;;;;;;;;;;;;;;;;;5006177;28;19910;-78
2023/01/04 01:47:56;;;;;;;;;;;;;;;;;;5004207;28;19913;-79
2023/01/04 01:50:42;;;;;;;;;;;;;;;;;;5007215;28;19925;-79
2023/01/04 01:53:29;;;;;;;;;;;;;;;;;;5011091;28;19918;-80
2023/01/04 01:56:15;;;;;;;;;;;;;;;;;;5000687;28;19943;-79
2023/01/04 01:59:02;;;;;;;;;;;;;;;;;;5006925;28;19927;-78
2023/01/04 02:01:48;;;;;;;;;;;;;;;;;;5007322;28;19921;-78
2023/01/04 02:04:35;;;;;;;;;;;;;;;;;;5006403;28;19909;-78
2023/01/04 02:07:21;;;;;;;;;;;;;;;;;;5007871;28;19921;-78
2023/01/04 02:10:08;;;;;;;;;;;;;;;;;;4989719;28;20431;-77
2023/01/04 02:12:54;;;;;;;;;;;;;;;;;;4996189;28;19913;-77
2023/01/04 02:15:41;;;;;;;;;;;;;;;;;;5011057;28;19932;-77
2023/01/04 02:18:27;;;;;;;;;;;;;;;;;;5011282;28;19914;-77
2023/01/04 02:21:13;;;;;;;;;;;;;;;;;;5001639;28;20384;-78
2023/01/04 02:24:00;;;;;;;;;;;;;;;;;;5012414;28;19913;-78
2023/01/04 02:26:46;;;;;;;;;;;;;;;;;;5011269;28;19920;-78
2023/01/04 02:29:33;;;;;;;;;;;;;;;;;;5003996;28;19909;-77
2023/01/04 02:32:19;;;;;;;;;;;;;;;;;;5011035;28;19918;-78
2023/01/04 02:35:06;;;;;;;;;;;;;;;;;;5011853;28;19917;-78
2023/01/04 02:37:52;;;;;;;;;;;;;;;;;;5010892;28;19909;-78
2023/01/04 02:40:39;;;;;;;;;;;;;;;;;;5000942;28;19924;-78
2023/01/04 02:46:30;;;;;;;;;;;;;;;;;;5010819;28;20596;-76
2023/01/04 02:52:22;;;;;;;;;;;;;;;;;;5014160;28;19932;-77
2023/01/04 02:55:08;;;;;;;;;;;;;;;;;;4991949;28;19932;-73
2023/01/04 02:57:55;;;;;;;;;;;;;;;;;;5006268;28;20347;-72
2023/01/04 03:06:14;;;;;;;;;;;;;;;;;;5002475;28;20440;-71
2023/01/04 03:06:53;;;;;;;;;;;;;;;;;;5011464;28;19920;-72
2023/01/04 03:09:39;;;;;;;;;;;;;;;;;;5004466;28;19914;-73
2023/01/04 03:12:32;;;;;;;;;;;;;;;;;;5004250;28;19913;-73
2023/01/04 03:15:18;;;;;;;;;;;;;;;;;;5004035;28;19925;-72
2023/01/04 03:18:05;;;;;;;;;;;;;;;;;;4989975;28;19924;-73
2023/01/04 03:20:51;;;;;;;;;;;;;;;;;;5010437;28;19917;-74
2023/01/04 03:36:00;;;;;;;;;;;;;;;;;;5001124;28;19939;-72
2023/01/04 03:51:07;;;;;;;;;;;;;;;;;;5000377;28;20488;-74
2023/01/04 03:53:53;;;;;;;;;;;;;;;;;;5012423;28;19964;-72
2023/01/04 03:56:43;;;;;;;;;;;;;;;;;;5007232;28;19926;-73
2023/01/04 03:59:29;;;;;;;;;;;;;;;;;;5012036;28;19921;-75
2023/01/04 04:02:18;;;;;;;;;;;;;;;;;;5013008;28;19909;-74
2023/01/04 04:08:28;;;;;;;;;;;;;;;;;;5003171;28;19925;-73
2023/01/04 04:11:30;;;;;;;;;;;;;;;;;;4991649;28;19918;-73
2023/01/04 04:14:16;;;;;;;;;;;;;;;;;;4993592;28;19917;-73
2023/01/04 04:17:02;;;;;;;;;;;;;;;;;;4994456;28;20368;-73
2023/01/04 04:19:49;;;;;;;;;;;;;;;;;;4999112;28;19920;-73
2023/01/04 04:22:35;;;;;;;;;;;;;;;;;;4998522;28;19917;-73
2023/01/04 04:25:22;;;;;;;;;;;;;;;;;;5007493;28;19921;-73
2023/01/04 04:28:08;;;;;;;;;;;;;;;;;;4992986;28;19920;-74
2023/01/04 04:30:55;;;;;;;;;;;;;;;;;;4998935;28;19918;-73
2023/01/04 04:33:41;;;;;;;;;;;;;;;;;;4999570;28;19918;-73
2023/01/04 04:36:28;;;;;;;;;;;;;;;;;;4996882;28;19921;-73
2023/01/04 04:39:14;;;;;;;;;;;;;;;;;;5002518;28;19924;-73
2023/01/04 04:42:01;;;;;;;;;;;;;;;;;;5003345;28;19917;-73
2023/01/04 04:44:47;;;;;;;;;;;;;;;;;;4994214;28;19913;-73
2023/01/04 04:47:34;;;;;;;;;;;;;;;;;;5008210;28;19959;-73
2023/01/04 04:50:20;;;;;;;;;;;;;;;;;;5009358;28;19919;-73
2023/01/04 04:53:07;;;;;;;;;;;;;;;;;;5004268;28;19936;-73
2023/01/04 04:55:53;;;;;;;;;;;;;;;;;;4999147;28;19936;-73
2023/01/04 04:58:40;;;;;;;;;;;;;;;;;;4999974;28;19917;-73
2023/01/04 05:01:26;;;;;;;;;;;;;;;;;;5002938;28;19928;-73
2023/01/04 05:04:15;;;;;;;;;;;;;;;;;;4997856;28;20328;-73
2023/01/04 05:07:01;;;;;;;;;;;;;;;;;;5004076;28;19928;-74
2023/01/04 05:09:48;;;;;;;;;;;;;;;;;;5005228;28;19932;-73
2023/01/04 05:15:39;;;;;;;;;;;;;;;;;;5004531;28;20041;-73
2023/01/04 05:18:26;;;;;;;;;;;;;;;;;;5004452;28;20293;-72
2023/01/04 05:21:12;;;;;;;;;;;;;;;;;;5000538;28;19913;-73
2023/01/04 05:23:59;;;;;;;;;;;;;;;;;;5011460;28;19921;-74
2023/01/04 05:26:45;;;;;;;;;;;;;;;;;;5001425;28;19910;-73
2023/01/04 05:32:37;;;;;;;;;;;;;;;;;;5004226;28;19925;-73
2023/01/04 05:35:24;;;;;;;;;;;;;;;;;;4997771;28;19944;-73
2023/01/04 05:38:10;;;;;;;;;;;;;;;;;;5005153;28;19921;-73
2023/01/04 05:40:56;;;;;;;;;;;;;;;;;;5004753;28;19913;-73
2023/01/04 05:43:43;;;;;;;;;;;;;;;;;;5006031;28;19920;-73
2023/01/04 05:46:29;;;;;;;;;;;;;;;;;;5002225;28;19920;-74
2023/01/04 05:49:16;;;;;;;;;;;;;;;;;;5011718;28;19914;-73
2023/01/04 05:52:02;;;;;;;;;;;;;;;;;;5003961;28;19925;-73
2023/01/04 05:54:49;;;;;;;;;;;;;;;;;;5008937;28;19920;-71
2023/01/04 05:57:35;;;;;;;;;;;;;;;;;;5007051;28;19929;-72
2023/01/04 06:00:22;;;;;;;;;;;;;;;;;;5000707;28;20292;-72
2023/01/04 06:03:08;;;;;;;;;;;;;;;;;;5007983;28;19920;-72
2023/01/04 06:05:55;;;;;;;;;;;;;;;;;;5008342;28;19935;-72
2023/01/04 06:08:41;;;;;;;;;;;;;;;;;;5005769;28;19993;-71
2023/01/04 06:11:28;;;;;;;;;;;;;;;;;;5007412;28;19925;-72
2023/01/04 06:14:14;;;;;;;;;;;;;;;;;;5007257;28;19913;-72
2023/01/04 06:17:01;;;;;;;;;;;;;;;;;;4998227;28;19938;-72
2023/01/04 06:19:47;;;;;;;;;;;;;;;;;;5007193;28;19916;-72
2023/01/04 06:22:34;;;;;;;;;;;;;;;;;;5001399;28;20397;-72
2023/01/04 06:25:20;;;;;;;;;;;;;;;;;;5007355;28;19917;-72
2023/01/04 06:28:07;;;;;;;;;;;;;;;;;;5006826;28;19914;-73
2023/01/04 06:30:53;;;;;;;;;;;;;;;;;;5007999;28;19914;-74
2023/01/04 06:33:40;;;;;;;;;;;;;;;;;;5009400;28;19924;-71
2023/01/04 06:36:26;;;;;;;;;;;;;;;;;;5013170;28;19928;-72
2023/01/04 06:39:12;;;;;;;;;;;;;;;;;;5011898;28;19952;-71
2023/01/04 06:41:59;;;;;;;;;;;;;;;;;;4995108;28;20377;-71
2023/01/04 06:44:45;;;;;;;;;;;;;;;;;;4996576;28;19914;-72
2023/01/04 06:47:32;;;;;;;;;;;;;;;;;;5004873;28;19924;-72
2023/01/04 06:50:18;;;;;;;;;;;;;;;;;;5008689;28;19913;-72
2023/01/04 06:53:05;;;;;;;;;;;;;;;;;;5003018;28;19921;-73
2023/01/04 06:55:51;;;;;;;;;;;;;;;;;;5002114;28;19925;-74
2023/01/04 06:58:38;;;;;;;;;;;;;;;;;;4998927;28;19917;-73
2023/01/04 07:01:24;;;;;;;;;;;;;;;;;;5003719;28;20017;-73
2023/01/04 07:04:11;;;;;;;;;;;;;;;;;;5008005;28;19925;-75
2023/01/04 07:06:57;;;;;;;;;;;;;;;;;;5004976;28;19918;-72
2023/01/04 07:09:44;;;;;;;;;;;;;;;;;;5006643;28;19914;-73
2023/01/04 07:12:30;;;;;;;;;;;;;;;;;;5010923;28;19927;-73
2023/01/04 07:15:17;;;;;;;;;;;;;;;;;;5002795;28;20273;-74
2023/01/04 07:18:03;;;;;;;;;;;;;;;;;;5003645;28;19913;-73
2023/01/04 07:20:50;;;;;;;;;;;;;;;;;;5006308;28;19923;-73
2023/01/04 07:23:36;;;;;;;;;;;;;;;;;;4990198;28;20424;-74
2023/01/04 07:26:23;;;;;;;;;;;;;;;;;;5003656;28;19917;-73
2023/01/04 07:29:18;;;;;;;;;;;;;;;;;;5003984;28;19919;-73
2023/01/04 07:32:05;;;;;;;;;;;;;;;;;;5001710;28;20316;-74
2023/01/04 07:34:51;;;;;;;;;;;;;;;;;;5006414;28;19913;-72
2023/01/04 07:37:38;;;;;;;;;;;;;;;;;;5004857;28;19925;-73
2023/01/04 07:40:24;;;;;;;;;;;;;;;;;;5006426;28;19910;-73
2023/01/04 07:43:11;;;;;;;;;;;;;;;;;;5004955;28;20459;-72
2023/01/04 07:45:57;;;;;;;;;;;;;;;;;;4999426;28;19914;-73
2023/01/04 07:48:43;;;;;;;;;;;;;;;;;;5002859;28;19916;-73
2023/01/04 07:51:30;;;;;;;;;;;;;;;;;;5000325;28;19944;-72
2023/01/04 07:54:16;;;;;;;;;;;;;;;;;;4987067;28;19922;-72
2023/01/04 07:57:03;;;;;;;;;;;;;;;;;;4987986;28;20403;-72
2023/01/04 07:59:50;;;;;;;;;;;;;;;;;;4985533;28;19984;-73
2023/01/04 08:02:37;;;;;;;;;;;;;;;;;;4986324;28;19918;-74
2023/01/04 08:05:24;;;;;;;;;;;;;;;;;;4988089;28;19917;-73
2023/01/04 08:08:10;;;;;;;;;;;;;;;;;;4995047;28;19921;-73
2023/01/04 08:10:57;;;;;;;;;;;;;;;;;;4978025;28;20374;-73
2023/01/04 08:13:43;;;;;;;;;;;;;;;;;;4992825;28;19913;-73
2023/01/04 08:16:33;;;;;;;;;;;;;;;;;;4988829;28;19930;-77
2023/01/04 08:19:19;;;;;;;;;;;;;;;;;;4991108;28;19920;-78
2023/01/04 08:22:05;;;;;;;;;;;;;;;;;;4998946;28;20361;-79
2023/01/04 08:24:52;;;;;;;;;;;;;;;;;;4993999;28;19924;-78
2023/01/04 08:27:40;;;;;;;;;;;;;;;;;;5000037;28;19917;-78
2023/01/04 08:30:27;;;;;;;;;;;;;;;;;;4980299;28;19925;-78
2023/01/04 08:33:13;;;;;;;;;;;;;;;;;;4990078;28;19920;-79
2023/01/04 08:36:00;;;;;;;;;;;;;;;;;;4988480;28;19922;-78
2023/01/04 08:38:46;;;;;;;;;;;;;;;;;;4988503;28;19910;-78
2023/01/04 08:41:33;;;;;;;;;;;;;;;;;;4977645;28;19909;-79
2023/01/04 08:44:19;;;;;;;;;;;;;;;;;;4990091;28;19914;-79
2023/01/04 08:47:05;;;;;;;;;;;;;;;;;;4990208;28;19936;-79
2023/01/04 08:49:52;;;;;;;;;;;;;;;;;;4979822;28;20274;-79
2023/01/04 08:52:38;;;;;;;;;;;;;;;;;;5004358;28;19936;-80
2023/01/04 08:55:25;;;;;;;;;;;;;;;;;;4994300;28;19917;-79
2023/01/04 08:58:11;;;;;;;;;;;;;;;;;;5002344;28;19928;-79
2023/01/04 09:00:58;;;;;;;;;;;;;;;;;;5008861;28;19918;-81
2023/01/04 09:03:44;;;;;;;;;;;;;;;;;;5004293;28;19921;-81
2023/01/04 09:06:31;;;;;;;;;;;;;;;;;;4992102;28;19967;-79
2023/01/04 09:09:17;;;;;;;;;;;;;;;;;;5002899;28;19916;-81
2023/01/04 09:12:04;;;;;;;;;;;;;;;;;;5000968;28;19913;-81
2023/01/04 09:14:50;;;;;;;;;;;;;;;;;;4997411;28;19917;-80
2023/01/04 09:17:37;;;;;;;;;;;;;;;;;;5001107;28;19918;-79
2023/01/04 09:20:23;;;;;;;;;;;;;;;;;;5003494;28;19920;-79
2023/01/04 09:23:10;;;;;;;;;;;;;;;;;;5005154;28;19924;-80
2023/01/04 09:25:56;;;;;;;;;;;;;;;;;;4998180;28;19918;-77
2023/01/04 09:28:43;;;;;;;;;;;;;;;;;;5006865;28;19924;-76
2023/01/04 09:31:29;;;;;;;;;;;;;;;;;;5006389;28;20467;-77
2023/01/04 09:34:16;;;;;;;;;;;;;;;;;;5005700;28;19918;-78
2023/01/04 09:37:02;;;;;;;;;;;;;;;;;;4988289;28;19926;-80
2023/01/04 09:39:49;;;;;;;;;;;;;;;;;;4993953;28;19920;-79
2023/01/04 09:42:35;;;;;;;;;;;;;;;;;;5005326;28;19909;-79
2023/01/04 09:45:22;;;;;;;;;;;;;;;;;;5007138;28;19913;-81
2023/01/04 09:48:08;;;;;;;;;;;;;;;;;;5000942;28;20375;-80
2023/01/04 09:50:55;;;;;;;;;;;;;;;;;;5003027;28;19921;-78
2023/01/04 09:53:41;;;;;;;;;;;;;;;;;;4999544;28;19929;-78
2023/01/04 09:56:28;;;;;;;;;;;;;;;;;;5009044;28;19928;-78
2023/01/04 09:59:14;;;;;;;;;;;;;;;;;;4997790;28;19924;-78
2023/01/04 10:02:01;;;;;;;;;;;;;;;;;;5012123;28;19913;-79
2023/01/04 10:04:47;;;;;;;;;;;;;;;;;;4989389;28;19920;-78
2023/01/04 10:07:34;;;;;;;;;;;;;;;;;;5000022;28;19945;-78
2023/01/04 10:10:20;;;;;;;;;;;;;;;;;;4996813;28;19976;-80
2023/01/04 10:13:07;;;;;;;;;;;;;;;;;;5004892;28;20294;-77
2023/01/04 10:15:53;;;;;;;;;;;;;;;;;;5009945;28;19914;-80
2023/01/04 10:18:40;;;;;;;;;;;;;;;;;;5006464;28;19913;-78
2023/01/04 10:21:26;;;;;;;;;;;;;;;;;;5000632;28;19920;-78
2023/01/04 10:24:12;;;;;;;;;;;;;;;;;;4999533;28;19914;-79
2023/01/04 10:26:59;;;;;;;;;;;;;;;;;;4993172;28;19921;-78
2023/01/04 10:29:45;;;;;;;;;;;;;;;;;;4999404;28;20293;-79
2023/01/04 10:32:32;;;;;;;;;;;;;;;;;;4994426;28;19940;-77
2023/01/04 10:35:19;;;;;;;;;;;;;;;;;;4995205;28;19910;-76
2023/01/04 10:38:06;;;;;;;;;;;;;;;;;;4997443;28;19922;-78
2023/01/04 10:40:53;;;;;;;;;;;;;;;;;;5003145;28;20296;-78
2023/01/04 10:43:39;;;;;;;;;;;;;;;;;;5010801;28;19920;-77
2023/01/04 10:46:26;;;;;;;;;;;;;;;;;;5001940;28;19910;-78
2023/01/04 10:49:12;;;;;;;;;;;;;;;;;;5002437;28;19913;-77
2023/01/04 10:52:00;;;;;;;;;;;;;;;;;;5005262;28;19921;-78
2023/01/04 10:54:47;;;;;;;;;;;;;;;;;;4994218;28;19920;-78
2023/01/04 10:57:34;;;;;;;;;;;;;;;;;;5003914;28;19928;-76
2023/01/04 11:00:20;;;;;;;;;;;;;;;;;;4988757;28;19909;-75
2023/01/04 11:03:07;;;;;;;;;;;;;;;;;;4997627;28;19913;-79
2023/01/04 11:05:53;;;;;;;;;;;;;;;;;;5003712;28;19952;-78
2023/01/04 11:08:40;;;;;;;;;;;;;;;;;;4999774;28;20551;-77
2023/01/04 11:11:26;;;;;;;;;;;;;;;;;;4996186;28;19921;-78
2023/01/04 11:14:13;;;;;;;;;;;;;;;;;;4994610;28;19909;-79
2023/01/04 11:16:59;;;;;;;;;;;;;;;;;;4993974;28;20293;-79
2023/01/04 11:19:46;;;;;;;;;;;;;;;;;;5000750;28;19936;-80
2023/01/04 11:22:32;;;;;;;;;;;;;;;;;;4999665;28;19928;-81
2023/01/04 11:25:19;;;;;;;;;;;;;;;;;;4982657;28;19913;-81
2023/01/04 11:28:05;;;;;;;;;;;;;;;;;;4997411;28;19914;-79
2023/01/04 11:30:52;;;;;;;;;;;;;;;;;;5001328;28;20463;-77
2023/01/04 11:33:38;;;;;;;;;;;;;;;;;;4998332;28;20402;-79
2023/01/04 11:36:24;;;;;;;;;;;;;;;;;;5003603;28;19925;-77
2023/01/04 11:39:11;;;;;;;;;;;;;;;;;;4999021;28;19926;-77
2023/01/04 11:42:01;;;;;;;;;;;;;;;;;;4999282;28;20434;-79
2023/01/04 11:44:47;;;;;;;;;;;;;;;;;;5003470;28;19909;-79
2023/01/04 11:47:34;;;;;;;;;;;;;;;;;;4999409;28;19910;-79
2023/01/04 11:50:20;;;;;;;;;;;;;;;;;;5000286;28;19913;-77
2023/01/04 11:53:07;;;;;;;;;;;;;;;;;;5005010;28;19922;-78
2023/01/04 11:55:53;;;;;;;;;;;;;;;;;;5007927;28;19916;-77
2023/01/04 11:58:39;;;;;;;;;;;;;;;;;;4998202;28;19925;-78
2023/01/04 12:01:32;;;;;;;;;;;;;;;;;;5008206;28;19932;-77
2023/01/04 12:04:18;;;;;;;;;;;;;;;;;;4993779;28;20392;-79
2023/01/04 12:07:05;;;;;;;;;;;;;;;;;;5005664;28;19913;-78
2023/01/04 12:09:51;;;;;;;;;;;;;;;;;;4999868;28;20471;-78
2023/01/04 12:12:38;;;;;;;;;;;;;;;;;;4998447;28;19913;-78
2023/01/04 12:15:24;;;;;;;;;;;;;;;;;;4996615;28;19914;-77
2023/01/04 12:18:11;;;;;;;;;;;;;;;;;;4992776;28;19929;-78
2023/01/04 12:20:57;;;;;;;;;;;;;;;;;;4991962;28;19921;-78
2023/01/04 12:23:44;;;;;;;;;;;;;;;;;;4995550;28;19921;-78
2023/01/04 12:26:30;;;;;;;;;;;;;;;;;;5008673;28;19909;-78
2023/01/04 12:29:17;;;;;;;;;;;;;;;;;;5004141;28;19965;-77
2023/01/04 12:32:03;;;;;;;;;;;;;;;;;;5006449;28;19916;-83
2023/01/04 12:34:50;;;;;;;;;;;;;;;;;;5004841;28;20363;-76
2023/01/04 12:37:36;;;;;;;;;;;;;;;;;;5016337;28;19925;-81
2023/01/04 12:40:23;;;;;;;;;;;;;;;;;;5003859;28;19914;-83
2023/01/04 12:43:09;;;;;;;;;;;;;;;;;;4978360;28;20372;-77
2023/01/04 12:49:02;;;;;;;;;;;;;;;;;;5000071;28;19909;-81
2023/01/04 12:49:02;;;;;;;;;;;;;;;;;;5007548;28;19917;-82
2023/01/04 12:51:49;;;;;;;;;;;;;;;;;;5005999;28;19929;-79
2023/01/04 12:54:35;;;;;;;;;;;;;;;;;;4987013;28;20012;-79
2023/01/04 12:57:23;;;;;;;;;;;;;;;;;;4994509;28;20337;-79
2023/01/04 13:00:11;;;;;;;;;;;;;;;;;;4995086;28;19920;-80
2023/01/04 13:02:57;;;;;;;;;;;;;;;;;;5005661;28;20303;-73
2023/01/04 13:05:44;;;;;;;;;;;;;;;;;;5005622;28;19918;-75
2023/01/04 13:08:32;;;;;;;;;;;;;;;;;;5006223;28;19923;-78
2023/01/04 13:11:21;;;;;;;;;;;;;;;;;;5003141;28;19913;-74
2023/01/04 13:14:07;;;;;;;;;;;;;;;;;;5002847;28;19913;-74
2023/01/04 13:16:54;;;;;;;;;;;;;;;;;;5011867;28;20300;-73
2023/01/04 13:19:42;;;;;;;;;;;;;;;;;;5002944;28;19910;-74
2023/01/04 13:22:29;;;;;;;;;;;;;;;;;;5007144;28;19993;-75
2023/01/04 13:25:16;;;;;;;;;;;;;;;;;;5005273;28;19985;-75
2023/01/04 13:28:02;;;;;;;;;;;;;;;;;;4999794;28;20329;-75
2023/01/04 13:30:49;;;;;;;;;;;;;;;;;;4998536;28;19921;-77
2023/01/04 13:33:36;;;;;;;;;;;;;;;;;;5009212;28;19914;-74
2023/01/04 13:36:23;;;;;;;;;;;;;;;;;;4994044;28;19924;-75
2023/01/04 13:39:09;;;;;;;;;;;;;;;;;;5002816;28;19918;-76
2023/01/04 13:41:58;;;;;;;;;;;;;;;;;;5006092;28;19920;-75
2023/01/04 13:44:44;;;;;;;;;;;;;;;;;;5001811;28;20027;-74
2023/01/04 13:47:32;;;;;;;;;;;;;;;;;;5002308;28;19924;-73
2023/01/04 13:50:18;;;;;;;;;;;;;;;;;;5000083;28;19921;-74
2023/01/04 13:53:05;;;;;;;;;;;;;;;;;;5009008;28;19932;-73
2023/01/04 13:55:51;;;;;;;;;;;;;;;;;;5009366;28;19914;-73
2023/01/04 13:58:38;;;;;;;;;;;;;;;;;;5008360;28;20368;-73
2023/01/04 14:01:27;;;;;;;;;;;;;;;;;;5007570;28;20434;-75
2023/01/04 14:04:14;;;;;;;;;;;;;;;;;;5008071;28;19914;-76
2023/01/04 14:07:00;;;;;;;;;;;;;;;;;;5001008;28;20223;-75
2023/01/04 14:09:51;;;;;;;;;;;;;;;;;;5009786;28;19910;-74
2023/01/04 14:12:38;;;;;;;;;;;;;;;;;;5010111;28;19918;-74
2023/01/04 14:15:24;;;;;;;;;;;;;;;;;;5017183;28;19920;-74
2023/01/04 14:18:11;;;;;;;;;;;;;;;;;;5010822;28;19917;-73
2023/01/04 14:20:57;;;;;;;;;;;;;;;;;;5010620;28;20381;-73
2023/01/04 14:23:44;;;;;;;;;;;;;;;;;;5007049;28;19920;-73
2023/01/04 14:26:30;;;;;;;;;;;;;;;;;;5015422;28;19910;-72
2023/01/04 14:29:17;;;;;;;;;;;;;;;;;;5007030;28;19924;-72
2023/01/04 14:32:03;;;;;;;;;;;;;;;;;;5009613;28;19913;-74
2023/01/04 14:34:50;;;;;;;;;;;;;;;;;;5012079;28;19917;-73
2023/01/04 14:37:36;;;;;;;;;;;;;;;;;;5014258;28;20019;-74
2023/01/04 14:40:23;;;;;;;;;;;;;;;;;;5009532;28;19913;-74
2023/01/04 14:43:09;;;;;;;;;;;;;;;;;;5006577;28;19932;-74
2023/01/04 14:45:56;;;;;;;;;;;;;;;;;;5015650;28;19913;-74
2023/01/04 14:48:42;;;;;;;;;;;;;;;;;;5020773;28;19948;-73
2023/01/04 14:51:29;;;;;;;;;;;;;;;;;;5002834;28;19929;-74
2023/01/04 14:54:15;;;;;;;;;;;;;;;;;;5009340;28;20381;-74
2023/01/04 14:57:02;;;;;;;;;;;;;;;;;;5006878;28;19917;-74
2023/01/04 14:59:48;;;;;;;;;;;;;;;;;;5006244;28;19959;-75
2023/01/04 15:02:35;;;;;;;;;;;;;;;;;;5006824;28;20571;-74
2023/01/04 15:05:21;;;;;;;;;;;;;;;;;;5011832;28;20560;-75
2023/01/04 15:08:08;;;;;;;;;;;;;;;;;;5006961;28;19917;-82
2023/01/04 15:10:54;;;;;;;;;;;;;;;;;;5000655;28;20208;-79
2023/01/04 15:13:41;;;;;;;;;;;;;;;;;;5005065;28;19920;-81
2023/01/04 15:16:27;;;;;;;;;;;;;;;;;;5003634;28;19921;-81
2023/01/04 15:19:14;;;;;;;;;;;;;;;;;;5011464;28;19923;-81
2023/01/04 15:22:00;;;;;;;;;;;;;;;;;;5005509;28;19913;-82
2023/01/04 15:24:47;;;;;;;;;;;;;;;;;;5002980;28;19920;-82
2023/01/04 15:27:33;;;;;;;;;;;;;;;;;;5001529;28;20365;-81
2023/01/04 15:30:23;;;;;;;;;;;;;;;;;;5005846;28;19925;-80
2023/01/04 15:33:09;;;;;;;;;;;;;;;;;;5008335;28;19913;-79
2023/01/04 15:35:56;;;;;;;;;;;;;;;;;;5011850;28;20294;-81
2023/01/04 15:38:42;;;;;;;;;;;;;;;;;;5010525;28;19928;-80
2023/01/04 15:44:34;;;;;;;;;;;;;;;;;;5004831;28;19921;-79
2023/01/04 15:47:20;;;;;;;;;;;;;;;;;;4993450;28;20525;-79
2023/01/04 15:50:07;;;;;;;;;;;;;;;;;;4999557;28;19913;-79
2023/01/04 15:52:54;;;;;;;;;;;;;;;;;;5008032;28;19922;-79
2023/01/04 15:55:40;;;;;;;;;;;;;;;;;;5010091;28;19909;-80
2023/01/04 15:58:27;;;;;;;;;;;;;;;;;;5009679;28;19928;-78
2023/01/04 16:01:13;;;;;;;;;;;;;;;;;;5000649;28;19924;-80
2023/01/04 16:04:01;;;;;;;;;;;;;;;;;;5027753;28;19912;-80
2023/01/04 16:06:47;;;;;;;;;;;;;;;;;;5015066;28;19916;-79
2023/01/04 16:09:35;;;;;;;;;;;;;;;;;;5002431;28;19924;-79
2023/01/04 16:12:43;;;;;;;;;;;;;;;;;;5009448;28;19913;-82
2023/01/04 16:15:30;;;;;;;;;;;;;;;;;;5007567;28;19913;-81
2023/01/04 16:18:16;;;;;;;;;;;;;;;;;;5008576;28;19925;-80
2023/01/04 16:21:03;;;;;;;;;;;;;;;;;;5008158;28;20019;-81
2023/01/04 16:23:49;;;;;;;;;;;;;;;;;;5010312;28;19914;-80
2023/01/04 16:26:36;;;;;;;;;;;;;;;;;;5010533;28;19909;-81
2023/01/04 16:29:23;;;;;;;;;;;;;;;;;;5009458;28;19913;-81
2023/01/04 16:32:10;;;;;;;;;;;;;;;;;;5016496;28;19921;-80
2023/01/04 16:34:56;;;;;;;;;;;;;;;;;;5009052;28;19913;-80
2023/01/04 16:37:43;;;;;;;;;;;;;;;;;;5008426;28;20560;-80
2023/01/04 16:40:29;;;;;;;;;;;;;;;;;;5002807;28;19921;-81
2023/01/04 16:43:16;;;;;;;;;;;;;;;;;;5002975;28;19916;-80
2023/01/04 16:46:02;;;;;;;;;;;;;;;;;;5007763;28;19955;-81
2023/01/04 16:48:49;;;;;;;;;;;;;;;;;;5007778;28;20241;-80
2023/01/04 16:51:35;;;;;;;;;;;;;;;;;;4998763;28;19925;-79
2023/01/04 16:54:22;;;;;;;;;;;;;;;;;;5004598;28;19920;-82
2023/01/04 16:57:08;;;;;;;;;;;;;;;;;;5005156;28;20296;-81
2023/01/04 16:59:55;;;;;;;;;;;;;;;;;;5005798;28;20275;-81
2023/01/04 17:02:41;;;;;;;;;;;;;;;;;;5005548;28;20370;-80
2023/01/04 17:05:28;;;;;;;;;;;;;;;;;;4996879;28;19924;-84
2023/01/04 17:08:14;;;;;;;;;;;;;;;;;;5005277;28;19915;-81
2023/01/04 17:11:01;;;;;;;;;;;;;;;;;;4997921;28;19916;-84
2023/01/04 17:13:47;;;;;;;;;;;;;;;;;;4996751;28;20545;-84
2023/01/04 17:16:34;;;;;;;;;;;;;;;;;;4998797;28;19918;-83
2023/01/04 17:19:20;;;;;;;;;;;;;;;;;;5000875;28;19917;-81
2023/01/04 17:22:07;;;;;;;;;;;;;;;;;;5003654;28;19940;-81
2023/01/04 17:24:53;;;;;;;;;;;;;;;;;;4996967;28;19929;-82
2023/01/04 17:27:40;;;;;;;;;;;;;;;;;;4996988;28;20408;-82
2023/01/04 17:30:26;;;;;;;;;;;;;;;;;;4998879;28;19988;-82
2023/01/04 17:33:13;;;;;;;;;;;;;;;;;;5000742;28;19913;-83
2023/01/04 17:36:05;;;;;;;;;;;;;;;;;;5014633;28;20400;-82
2023/01/04 17:38:52;;;;;;;;;;;;;;;;;;5012412;28;21126;-81
2023/01/04 17:41:39;;;;;;;;;;;;;;;;;;5000767;28;19917;-84
2023/01/04 17:44:26;;;;;;;;;;;;;;;;;;4996124;28;19936;-83
2023/01/04 17:47:12;;;;;;;;;;;;;;;;;;5013378;28;19926;-81
2023/01/04 17:49:59;;;;;;;;;;;;;;;;;;5007812;28;19917;-83
2023/01/04 17:52:46;;;;;;;;;;;;;;;;;;4997797;28;20483;-81
2023/01/04 17:55:32;;;;;;;;;;;;;;;;;;5004555;28;20415;-80
2023/01/04 17:58:19;;;;;;;;;;;;;;;;;;5009030;28;19918;-82
2023/01/04 18:01:06;;;;;;;;;;;;;;;;;;4999661;28;19944;-80
2023/01/04 18:03:52;;;;;;;;;;;;;;;;;;4999159;28;19943;-81
2023/01/04 18:06:39;;;;;;;;;;;;;;;;;;5016536;28;20384;-81
2023/01/04 18:09:26;;;;;;;;;;;;;;;;;;5016060;28;20288;-81
2023/01/04 18:12:12;;;;;;;;;;;;;;;;;;5014183;28;20151;-84
2023/01/04 18:14:59;;;;;;;;;;;;;;;;;;5003048;28;19917;-80
2023/01/04 18:17:45;;;;;;;;;;;;;;;;;;5001299;28;19928;-78
2023/01/04 18:20:31;;;;;;;;;;;;;;;;;;5010303;28;19927;-81
2023/01/04 18:23:18;;;;;;;;;;;;;;;;;;5004316;28;20379;-79
2023/01/04 18:26:05;;;;;;;;;;;;;;;;;;5002991;28;19918;-84
2023/01/04 18:28:52;;;;;;;;;;;;;;;;;;5000264;28;20561;-78
2023/01/04 18:31:38;;;;;;;;;;;;;;;;;;5004600;28;19924;-78
2023/01/04 18:34:25;;;;;;;;;;;;;;;;;;5001759;28;20301;-77
2023/01/04 18:37:12;;;;;;;;;;;;;;;;;;5008375;28;19945;-77
2023/01/04 18:39:59;;;;;;;;;;;;;;;;;;4999346;28;19920;-78
2023/01/04 18:42:45;;;;;;;;;;;;;;;;;;5001157;28;19925;-79
2023/01/04 18:45:32;;;;;;;;;;;;;;;;;;5005133;28;19914;-78
2023/01/04 18:48:18;;;;;;;;;;;;;;;;;;5001317;28;19948;-80
2023/01/04 18:51:05;;;;;;;;;;;;;;;;;;5004143;28;19921;-81
2023/01/04 18:53:51;;;;;;;;;;;;;;;;;;5002456;28;19914;-81
2023/01/04 18:56:38;;;;;;;;;;;;;;;;;;4988490;28;20672;-79
2023/01/04 18:59:24;;;;;;;;;;;;;;;;;;5009294;28;19925;-80
2023/01/04 19:02:11;;;;;;;;;;;;;;;;;;5002817;28;19915;-78
2023/01/04 19:04:57;;;;;;;;;;;;;;;;;;5000923;28;19997;-78
2023/01/04 19:07:44;;;;;;;;;;;;;;;;;;4999989;28;19944;-79
2023/01/04 19:10:30;;;;;;;;;;;;;;;;;;5005876;28;19922;-79
2023/01/04 19:13:17;;;;;;;;;;;;;;;;;;5003754;28;19917;-77
2023/01/04 19:16:03;;;;;;;;;;;;;;;;;;5000935;28;19913;-77
2023/01/04 19:18:50;;;;;;;;;;;;;;;;;;5005046;28;19925;-78
2023/01/04 19:21:36;;;;;;;;;;;;;;;;;;5004715;28;19924;-78
2023/01/04 19:24:23;;;;;;;;;;;;;;;;;;5004212;28;19914;-81
2023/01/04 19:27:11;;;;;;;;;;;;;;;;;;4995816;28;19923;-80
2023/01/04 19:29:57;;;;;;;;;;;;;;;;;;5007205;28;19920;-77
2023/01/04 19:32:44;;;;;;;;;;;;;;;;;;5001838;28;19921;-81
2023/01/04 19:35:30;;;;;;;;;;;;;;;;;;4998360;28;19913;-86
2023/01/04 19:38:17;;;;;;;;;;;;;;;;;;5010185;28;19928;-78
2023/01/04 19:41:04;;;;;;;;;;;;;;;;;;4998898;28;19935;-77
2023/01/04 19:43:50;;;;;;;;;;;;;;;;;;5002071;28;19921;-76
2023/01/04 19:46:37;;;;;;;;;;;;;;;;;;5000514;28;19913;-77